createdAt,value
2023-03-25T00:00:26.956Z,98.10
2023-03-25T00:01:26.945Z,99.43
2023-03-25T00:02:27.001Z,98.76
2023-03-25T00:03:26.946Z,99.99
2023-03-25T00:04:26.921Z,99.99
2023-03-25T00:05:26.888Z,99.99
2023-03-25T00:06:26.885Z,99.99
2023-03-25T00:07:26.859Z,99.99
2023-03-25T00:08:26.849Z,99.99
2023-03-25T00:09:26.831Z,99.99
2023-03-25T00:10:26.822Z,99.99
2023-03-25T00:11:26.811Z,99.99
2023-03-25T00:12:26.792Z,99.99
2023-03-25T00:13:26.783Z,99.99
2023-03-25T00:14:26.764Z,99.99
2023-03-25T00:15:26.767Z,99.99
2023-03-25T00:16:26.756Z,99.99
2023-03-25T00:17:26.742Z,99.99
2023-03-25T00:18:26.711Z,99.99
2023-03-25T00:19:26.722Z,99.99
2023-03-25T00:20:26.691Z,99.99
2023-03-25T00:21:26.686Z,99.99
2023-03-25T00:22:26.658Z,99.99
2023-03-25T00:23:26.652Z,99.99
2023-03-25T00:24:26.635Z,99.99
2023-03-25T00:25:26.620Z,99.99
2023-03-25T00:26:26.608Z,99.99
2023-03-25T00:27:26.586Z,99.99
2023-03-25T00:28:26.575Z,99.99
2023-03-25T00:29:26.562Z,99.99
2023-03-25T00:30:26.545Z,99.99
2023-03-25T00:31:26.745Z,99.99
2023-03-25T00:32:26.532Z,99.99
2023-03-25T00:33:26.513Z,99.99
2023-03-25T00:34:26.496Z,99.99
2023-03-25T00:35:26.508Z,99.99
2023-03-25T00:36:26.471Z,99.99
2023-03-25T00:37:26.451Z,99.99
2023-03-25T00:38:26.446Z,99.46
2023-03-25T00:39:26.428Z,99.99
2023-03-25T00:40:26.419Z,99.99
2023-03-25T00:41:26.397Z,99.99
2023-03-25T00:42:26.673Z,99.99
2023-03-25T00:43:26.369Z,99.99
2023-03-25T00:44:26.364Z,99.99
2023-03-25T00:45:26.347Z,99.99
2023-03-25T00:46:26.376Z,99.99
2023-03-25T00:47:26.337Z,99.99
2023-03-25T00:48:26.316Z,99.99
2023-03-25T00:49:26.289Z,99.99
2023-03-25T00:50:26.292Z,99.99
2023-03-25T00:51:26.376Z,99.99
2023-03-25T00:52:26.250Z,99.99
2023-03-25T00:53:26.240Z,99.99
2023-03-25T00:54:26.219Z,99.99
2023-03-25T00:55:26.214Z,99.99
2023-03-25T00:56:26.195Z,99.99
2023-03-25T00:57:26.200Z,99.99
2023-03-25T00:58:26.165Z,99.99
2023-03-25T00:59:26.156Z,99.99
2023-03-25T01:00:26.139Z,99.99
2023-03-25T01:01:26.200Z,99.99
2023-03-25T01:02:26.145Z,99.99
2023-03-25T01:03:26.181Z,99.99
2023-03-25T01:04:26.089Z,99.99
2023-03-25T01:05:26.070Z,99.99
2023-03-25T01:06:26.065Z,99.99
2023-03-25T01:07:26.071Z,99.99
2023-03-25T01:08:26.054Z,99.99
2023-03-25T01:09:26.020Z,99.99
2023-03-25T01:10:26.003Z,99.99
2023-03-25T01:11:25.992Z,99.99
2023-03-25T01:12:25.974Z,99.99
2023-03-25T01:13:25.964Z,99.99
2023-03-25T01:14:25.950Z,99.99
2023-03-25T01:15:25.931Z,99.99
2023-03-25T01:16:25.942Z,99.99
2023-03-25T01:17:25.943Z,99.99
2023-03-25T01:18:25.900Z,99.99
2023-03-25T01:19:25.879Z,99.99
2023-03-25T01:20:25.868Z,99.99
2023-03-25T01:21:25.855Z,99.99
2023-03-25T01:22:25.836Z,99.99
2023-03-25T01:23:25.851Z,99.99
2023-03-25T01:24:25.821Z,99.99
2023-03-25T01:25:25.797Z,99.99
2023-03-25T01:26:25.793Z,99.99
2023-03-25T01:27:25.773Z,99.76
2023-03-25T01:28:25.750Z,98.62
2023-03-25T01:29:25.749Z,98.99
2023-03-25T01:30:25.724Z,98.79
2023-03-25T01:31:25.743Z,99.14
2023-03-25T01:32:25.712Z,98.99
2023-03-25T01:33:25.687Z,99.71
2023-03-25T01:34:25.667Z,99.71
2023-03-25T01:35:25.664Z,98.88
2023-03-25T01:36:25.644Z,99.99
2023-03-25T01:37:25.668Z,99.99
2023-03-25T01:38:25.667Z,99.99
2023-03-25T01:39:25.635Z,99.99
2023-03-25T01:40:25.591Z,99.99
2023-03-25T01:41:29.180Z,99.99
2023-03-25T01:42:26.586Z,99.99
2023-03-25T01:43:25.544Z,99.99
2023-03-25T01:44:25.534Z,99.99
2023-03-25T01:45:25.514Z,99.25
2023-03-25T01:46:25.534Z,98.53
2023-03-25T01:50:21.392Z,98.53
2023-03-25T01:51:21.382Z,97.61
2023-03-25T01:52:21.358Z,97.71
2023-03-25T01:53:21.349Z,97.66
2023-03-25T01:54:21.358Z,97.91
2023-03-25T01:55:21.355Z,97.45
2023-03-25T01:56:21.308Z,96.84
2023-03-25T01:57:21.292Z,97.56
2023-03-25T01:58:21.289Z,97.45
2023-03-25T01:59:21.268Z,97.15
2023-03-25T02:00:21.254Z,97.25
2023-03-25T02:01:21.270Z,97.05
2023-03-25T02:02:21.247Z,96.73
2023-03-25T02:03:21.267Z,97.36
2023-03-25T02:04:21.200Z,97.61
2023-03-25T02:05:21.191Z,97.56
2023-03-25T02:06:21.171Z,96.99
2023-03-25T02:07:21.163Z,96.47
2023-03-25T02:08:21.134Z,96.43
2023-03-25T02:09:21.129Z,97.40
2023-03-25T02:10:21.115Z,95.61
2023-03-25T02:11:21.129Z,96.27
2023-03-25T02:12:21.089Z,95.75
2023-03-25T02:13:21.070Z,95.24
2023-03-25T02:14:21.073Z,96.06
2023-03-25T02:15:21.059Z,96.58
2023-03-25T02:16:21.076Z,96.37
2023-03-25T02:17:21.017Z,97.03
2023-03-25T02:18:21.003Z,96.62
2023-03-25T02:19:20.995Z,95.65
2023-03-25T02:20:20.979Z,96.58
2023-03-25T02:21:20.967Z,95.70
2023-03-25T02:22:20.984Z,95.70
2023-03-25T02:23:20.936Z,95.86
2023-03-25T02:24:20.921Z,96.06
2023-03-25T02:25:20.909Z,95.90
2023-03-25T02:26:20.892Z,96.06
2023-03-25T02:27:20.904Z,96.42
2023-03-25T02:28:20.862Z,95.70
2023-03-25T02:29:20.860Z,94.93
2023-03-25T02:30:20.885Z,94.77
2023-03-25T02:31:20.879Z,94.67
2023-03-25T02:32:20.810Z,94.67
2023-03-25T02:33:20.804Z,94.67
2023-03-25T02:34:20.779Z,94.01
2023-03-25T02:35:20.780Z,94.31
2023-03-25T02:36:20.751Z,94.77
2023-03-25T02:37:20.739Z,93.59
2023-03-25T02:38:20.744Z,94.87
2023-03-25T02:39:20.713Z,94.36
2023-03-25T02:40:20.730Z,94.67
2023-03-25T02:41:20.701Z,94.46
2023-03-25T02:42:20.766Z,95.28
2023-03-25T02:43:20.752Z,97.65
2023-03-25T02:44:20.644Z,99.09
2023-03-25T02:45:20.663Z,99.30
2023-03-25T02:46:20.625Z,99.99
2023-03-25T02:47:20.786Z,99.99
2023-03-25T02:48:20.584Z,99.99
2023-03-25T02:49:20.572Z,99.99
2023-03-25T02:50:20.565Z,99.99
2023-03-25T02:51:20.548Z,99.99
2023-03-25T02:52:20.735Z,99.99
2023-03-25T02:53:20.523Z,99.99
2023-03-25T02:54:20.505Z,99.99
2023-03-25T02:55:20.727Z,99.99
2023-03-25T02:56:20.483Z,99.99
2023-03-25T02:57:20.669Z,99.99
2023-03-25T02:58:20.456Z,99.99
2023-03-25T02:59:20.460Z,99.99
2023-03-25T03:00:20.433Z,99.99
2023-03-25T03:01:20.646Z,99.99
2023-03-25T03:02:20.763Z,99.99
2023-03-25T03:03:20.486Z,99.99
2023-03-25T03:04:20.371Z,99.99
2023-03-25T03:05:20.357Z,99.99
2023-03-25T03:06:20.345Z,99.99
2023-03-25T03:07:20.336Z,99.99
2023-03-25T03:08:20.332Z,99.99
2023-03-25T03:09:20.333Z,99.99
2023-03-25T03:10:20.289Z,99.99
2023-03-25T03:11:20.275Z,99.99
2023-03-25T03:12:20.269Z,99.99
2023-03-25T03:13:20.258Z,99.99
2023-03-25T03:14:20.240Z,99.99
2023-03-25T03:15:20.252Z,99.99
2023-03-25T03:16:20.238Z,99.99
2023-03-25T03:17:20.416Z,99.99
2023-03-25T03:18:20.313Z,99.99
2023-03-25T03:19:20.172Z,99.99
2023-03-25T03:20:20.200Z,99.99
2023-03-25T03:21:20.142Z,99.99
2023-03-25T03:22:20.131Z,99.99
2023-03-25T03:23:20.113Z,99.99
2023-03-25T03:24:20.107Z,99.99
2023-03-25T03:25:20.121Z,99.99
2023-03-25T03:26:20.073Z,99.99
2023-03-25T03:27:20.314Z,99.99
2023-03-25T03:28:20.055Z,99.99
2023-03-25T03:29:20.041Z,99.99
2023-03-25T03:30:20.026Z,99.99
2023-03-25T03:31:59.201Z,99.99
2023-03-25T03:32:21.065Z,99.99
2023-03-25T03:33:19.985Z,99.99
2023-03-25T03:34:19.971Z,99.99
2023-03-25T03:35:19.995Z,99.99
2023-03-25T03:36:19.949Z,99.99
2023-03-25T03:37:19.932Z,99.99
2023-03-25T03:38:19.918Z,99.99
2023-03-25T03:39:19.900Z,99.99
2023-03-25T03:40:19.990Z,99.99
2023-03-25T03:41:19.895Z,99.99
2023-03-25T03:42:19.870Z,99.99
2023-03-25T03:43:20.152Z,99.99
2023-03-25T03:44:19.843Z,99.99
2023-03-25T03:45:19.829Z,99.99
2023-03-25T03:46:20.068Z,99.99
2023-03-25T03:47:19.824Z,99.99
2023-03-25T03:48:19.787Z,99.99
2023-03-25T03:49:20.168Z,99.99
2023-03-25T03:50:19.757Z,99.99
2023-03-25T03:51:19.748Z,99.99
2023-03-25T03:52:19.930Z,99.99
2023-03-25T03:53:19.714Z,99.99
2023-03-25T03:54:19.707Z,99.99
2023-03-25T03:55:19.711Z,99.99
2023-03-25T03:56:19.685Z,99.99
2023-03-25T03:57:19.665Z,99.99
2023-03-25T03:58:19.655Z,99.99
2023-03-25T03:59:19.644Z,99.99
2023-03-25T04:00:19.636Z,99.99
2023-03-25T04:01:20.311Z,99.99
2023-03-25T04:02:19.617Z,99.99
2023-03-25T04:03:19.673Z,99.99
2023-03-25T04:04:19.569Z,99.99
2023-03-25T04:05:19.552Z,99.99
2023-03-25T04:06:19.541Z,99.99
2023-03-25T04:07:19.561Z,99.99
2023-03-25T04:08:19.515Z,99.99
2023-03-25T04:09:19.511Z,99.99
2023-03-25T04:10:19.494Z,99.99
2023-03-25T04:11:19.476Z,99.99
2023-03-25T04:12:19.464Z,99.99
2023-03-25T04:13:19.473Z,99.99
2023-03-25T04:14:19.440Z,99.99
2023-03-25T04:15:19.415Z,99.99
2023-03-25T04:16:19.452Z,99.99
2023-03-25T04:17:19.404Z,99.99
2023-03-25T04:18:19.390Z,99.99
2023-03-25T04:19:19.399Z,99.99
2023-03-25T04:20:19.366Z,99.99
2023-03-25T04:21:19.344Z,99.99
2023-03-25T04:22:19.330Z,99.99
2023-03-25T04:23:19.318Z,99.99
2023-03-25T04:24:19.303Z,99.99
2023-03-25T04:25:19.288Z,99.99
2023-03-25T04:26:19.271Z,99.99
2023-03-25T04:27:19.255Z,99.99
2023-03-25T04:28:19.243Z,99.99
2023-03-25T04:29:19.238Z,99.99
2023-03-25T04:30:19.334Z,99.99
2023-03-25T04:31:19.217Z,99.99
2023-03-25T04:32:19.213Z,99.99
2023-03-25T04:33:19.178Z,99.99
2023-03-25T04:34:19.172Z,99.99
2023-03-25T04:35:19.187Z,99.99
2023-03-25T04:36:19.370Z,99.99
2023-03-25T04:37:19.122Z,99.99
2023-03-25T04:38:19.117Z,99.99
2023-03-25T04:39:19.098Z,99.99
2023-03-25T04:40:19.122Z,99.99
2023-03-25T04:41:19.117Z,99.99
2023-03-25T04:42:19.078Z,99.99
2023-03-25T04:43:19.054Z,99.99
2023-03-25T04:44:19.024Z,99.99
2023-03-25T04:45:19.009Z,99.99
2023-03-25T04:46:19.020Z,99.99
2023-03-25T04:47:19.002Z,99.99
2023-03-25T04:48:18.977Z,99.99
2023-03-25T04:49:18.972Z,99.99
2023-03-25T04:50:18.963Z,99.99
2023-03-25T04:51:18.953Z,99.99
2023-03-25T04:52:18.937Z,99.99
2023-03-25T04:53:18.970Z,99.99
2023-03-25T04:54:18.899Z,99.99
2023-03-25T04:55:18.883Z,99.99
2023-03-25T04:56:18.883Z,99.99
2023-03-25T04:57:18.867Z,99.99
2023-03-25T04:58:18.854Z,99.99
2023-03-25T04:59:18.838Z,99.99
2023-03-25T05:00:18.819Z,99.99
2023-03-25T05:01:18.832Z,99.99
2023-03-25T05:02:18.806Z,99.99
2023-03-25T05:03:18.775Z,99.99
2023-03-25T05:04:18.805Z,99.99
2023-03-25T05:05:18.810Z,99.99
2023-03-25T05:06:18.728Z,99.99
2023-03-25T05:07:18.759Z,99.99
2023-03-25T05:08:18.705Z,99.99
2023-03-25T05:09:18.690Z,99.99
2023-03-25T05:10:18.676Z,99.99
2023-03-25T05:11:18.660Z,99.99
2023-03-25T05:12:18.654Z,99.99
2023-03-25T05:13:18.639Z,99.99
2023-03-25T05:14:18.634Z,99.99
2023-03-25T05:15:18.608Z,99.99
2023-03-25T05:16:18.634Z,99.99
2023-03-25T05:17:18.585Z,99.99
2023-03-25T05:18:18.576Z,99.99
2023-03-25T05:19:18.569Z,99.99
2023-03-25T05:20:18.546Z,99.99
2023-03-25T05:21:18.527Z,99.99
2023-03-25T05:22:18.518Z,99.99
2023-03-25T05:23:18.532Z,99.99
2023-03-25T05:24:18.496Z,99.99
2023-03-25T05:25:18.478Z,99.99
2023-03-25T05:26:18.464Z,99.99
2023-03-25T05:27:18.451Z,99.99
2023-03-25T05:28:18.443Z,99.99
2023-03-25T05:29:18.423Z,99.99
2023-03-25T05:30:18.424Z,99.99
2023-03-25T05:31:18.435Z,99.99
2023-03-25T05:32:18.395Z,99.99
2023-03-25T05:33:18.368Z,99.99
2023-03-25T05:34:18.388Z,99.99
2023-03-25T05:35:18.339Z,99.99
2023-03-25T05:36:18.328Z,99.99
2023-03-25T05:37:18.321Z,99.99
2023-03-25T05:38:18.320Z,99.99
2023-03-25T05:39:18.307Z,99.99
2023-03-25T05:40:18.281Z,99.99
2023-03-25T05:41:18.267Z,99.99
2023-03-25T05:42:18.252Z,99.99
2023-03-25T05:43:18.237Z,99.99
2023-03-25T05:44:18.225Z,99.99
2023-03-25T05:45:18.210Z,99.99
2023-03-25T05:46:18.237Z,99.99
2023-03-25T05:47:18.175Z,99.99
2023-03-25T05:48:18.168Z,99.99
2023-03-25T05:49:18.160Z,99.99
2023-03-25T05:50:18.139Z,99.99
2023-03-25T05:51:18.142Z,99.99
2023-03-25T05:52:18.116Z,99.99
2023-03-25T05:53:18.096Z,99.99
2023-03-25T05:54:18.096Z,99.99
2023-03-25T05:55:20.571Z,99.99
2023-03-25T05:56:18.062Z,99.99
2023-03-25T05:57:18.046Z,99.99
2023-03-25T05:58:18.045Z,99.99
2023-03-25T05:59:18.024Z,99.99
2023-03-25T06:00:18.006Z,99.99
2023-03-25T06:01:32.042Z,99.99
2023-03-25T06:02:19.083Z,99.99
2023-03-25T06:03:18.077Z,99.99
2023-03-25T06:04:18.022Z,99.99
2023-03-25T06:05:17.938Z,99.99
2023-03-25T06:06:17.923Z,99.99
2023-03-25T06:07:17.909Z,99.99
2023-03-25T06:08:17.896Z,99.99
2023-03-25T06:09:17.896Z,99.99
2023-03-25T06:10:17.885Z,99.99
2023-03-25T06:11:17.880Z,99.99
2023-03-25T06:12:17.870Z,99.99
2023-03-25T06:13:17.826Z,99.99
2023-03-25T06:14:17.824Z,99.99
2023-03-25T06:15:17.797Z,99.99
2023-03-25T06:16:17.816Z,99.99
2023-03-25T06:17:17.769Z,99.99
2023-03-25T06:18:17.760Z,99.99
2023-03-25T06:19:17.742Z,99.99
2023-03-25T06:20:17.731Z,99.99
2023-03-25T06:21:17.718Z,99.99
2023-03-25T06:22:17.706Z,99.99
2023-03-25T06:23:17.981Z,99.99
2023-03-25T06:24:17.675Z,99.99
2023-03-25T06:25:17.676Z,99.99
2023-03-25T06:26:17.658Z,99.99
2023-03-25T06:27:17.662Z,99.99
2023-03-25T06:28:17.622Z,99.99
2023-03-25T06:29:17.609Z,99.99
2023-03-25T06:30:17.593Z,99.99
2023-03-25T06:31:17.610Z,99.99
2023-03-25T06:32:17.563Z,99.99
2023-03-25T06:33:17.558Z,99.99
2023-03-25T06:34:18.560Z,99.99
2023-03-25T06:35:17.521Z,99.83
2023-03-25T06:36:17.528Z,95.25
2023-03-25T06:37:17.510Z,95.10
2023-03-25T06:38:17.489Z,94.65
2023-03-25T06:39:17.472Z,93.83
2023-03-25T06:40:17.466Z,97.12
2023-03-25T06:41:17.438Z,97.07
2023-03-25T06:42:17.438Z,93.70
2023-03-25T06:43:17.471Z,90.79
2023-03-25T06:44:17.408Z,89.97
2023-03-25T06:45:18.421Z,92.08
2023-03-25T06:46:17.449Z,88.65
2023-03-25T06:47:17.368Z,91.58
2023-03-25T06:48:17.351Z,92.72
2023-03-25T06:49:17.346Z,85.40
2023-03-25T06:50:17.321Z,83.87
2023-03-25T06:51:17.301Z,89.65
2023-03-25T06:52:17.296Z,87.10
2023-03-25T06:53:17.299Z,84.00
2023-03-25T06:54:17.270Z,81.44
2023-03-25T06:55:17.257Z,82.43
2023-03-25T06:56:18.586Z,82.91
2023-03-25T06:57:17.223Z,82.46
2023-03-25T06:58:17.215Z,80.73
2023-03-25T06:59:17.234Z,85.08
2023-03-25T07:00:17.190Z,82.01
2023-03-25T07:01:17.333Z,82.32
2023-03-25T07:02:17.164Z,83.07
2023-03-25T07:03:17.146Z,81.31
2023-03-25T07:04:19.139Z,87.77
2023-03-25T07:05:17.164Z,88.64
2023-03-25T07:06:17.105Z,90.48
2023-03-25T07:07:17.094Z,89.87
2023-03-25T07:08:17.096Z,88.06
2023-03-25T07:09:17.074Z,91.38
2023-03-25T07:10:17.049Z,88.72
2023-03-25T07:11:17.040Z,93.95
2023-03-25T07:12:17.024Z,95.02
2023-03-25T07:13:17.024Z,94.10
2023-03-25T07:14:16.999Z,93.27
2023-03-25T07:15:17.012Z,91.42
2023-03-25T07:16:17.040Z,90.71
2023-03-25T07:17:16.957Z,92.50
2023-03-25T07:18:16.947Z,94.51
2023-03-25T07:19:17.289Z,93.85
2023-03-25T07:20:17.217Z,91.94
2023-03-25T07:21:16.901Z,90.67
2023-03-25T07:22:16.897Z,88.56
2023-03-25T07:23:16.876Z,89.89
2023-03-25T07:24:16.866Z,92.93
2023-03-25T07:25:16.850Z,91.65
2023-03-25T07:26:16.836Z,87.38
2023-03-25T07:27:16.839Z,86.66
2023-03-25T07:28:16.807Z,86.83
2023-03-25T07:29:16.805Z,85.74
2023-03-25T07:30:16.985Z,87.26
2023-03-25T07:31:16.919Z,87.85
2023-03-25T07:32:16.764Z,83.69
2023-03-25T07:33:16.778Z,80.38
2023-03-25T07:34:16.731Z,78.75
2023-03-25T07:35:16.738Z,79.52
2023-03-25T07:36:16.704Z,80.74
2023-03-25T07:37:16.692Z,80.91
2023-03-25T07:38:16.677Z,79.41
2023-03-25T07:39:16.691Z,77.40
2023-03-25T07:40:16.651Z,78.45
2023-03-25T07:41:16.633Z,79.71
2023-03-25T07:42:16.619Z,79.50
2023-03-25T07:43:16.609Z,77.78
2023-03-25T07:44:18.218Z,77.47
2023-03-25T07:45:16.582Z,76.08
2023-03-25T07:46:16.588Z,79.20
2023-03-25T07:47:16.576Z,74.93
2023-03-25T07:48:16.558Z,75.26
2023-03-25T07:49:16.526Z,73.57
2023-03-25T07:50:16.513Z,74.35
2023-03-25T07:51:16.514Z,75.56
2023-03-25T07:52:16.491Z,71.50
2023-03-25T07:53:16.466Z,73.60
2023-03-25T07:54:16.460Z,75.84
2023-03-25T07:55:16.450Z,74.28
2023-03-25T07:56:16.432Z,73.67
2023-03-25T07:57:16.419Z,73.02
2023-03-25T07:58:16.401Z,75.07
2023-03-25T07:59:16.390Z,76.40
2023-03-25T08:00:16.376Z,81.54
2023-03-25T08:01:16.360Z,80.49
2023-03-25T08:02:16.378Z,81.79
2023-03-25T08:03:16.437Z,84.60
2023-03-25T08:04:16.326Z,87.67
2023-03-25T08:05:16.340Z,87.82
2023-03-25T08:06:16.296Z,87.41
2023-03-25T08:07:16.280Z,89.15
2023-03-25T08:08:16.277Z,87.45
2023-03-25T08:09:16.803Z,87.79
2023-03-25T08:10:16.240Z,90.32
2023-03-25T08:11:16.227Z,90.69
2023-03-25T08:12:16.215Z,88.80
2023-03-25T08:13:16.202Z,87.06
2023-03-25T08:14:16.186Z,88.56
2023-03-25T08:15:16.173Z,87.37
2023-03-25T08:16:16.178Z,86.24
2023-03-25T08:17:16.143Z,87.71
2023-03-25T08:18:16.124Z,90.07
2023-03-25T08:19:16.137Z,92.74
2023-03-25T08:20:16.105Z,93.30
2023-03-25T08:21:16.106Z,90.30
2023-03-25T08:22:16.077Z,87.49
2023-03-25T08:23:17.497Z,85.85
2023-03-25T08:24:16.043Z,85.03
2023-03-25T08:25:16.058Z,85.79
2023-03-25T08:26:16.015Z,84.15
2023-03-25T08:27:16.460Z,85.48
2023-03-25T08:28:15.997Z,85.48
2023-03-25T08:29:16.541Z,87.47
2023-03-25T08:30:15.963Z,88.45
2023-03-25T08:31:15.981Z,87.43
2023-03-25T08:32:15.933Z,86.44
2023-03-25T08:33:15.920Z,85.31
2023-03-25T08:34:15.900Z,86.10
2023-03-25T08:35:15.908Z,85.63
2023-03-25T08:36:15.877Z,85.72
2023-03-25T08:37:15.871Z,84.53
2023-03-25T08:38:15.848Z,86.69
2023-03-25T08:39:15.833Z,88.90
2023-03-25T08:40:15.817Z,87.71
2023-03-25T08:41:15.806Z,89.66
2023-03-25T08:42:15.794Z,86.99
2023-03-25T08:43:15.797Z,87.47
2023-03-25T08:44:15.763Z,85.99
2023-03-25T08:45:15.759Z,83.27
2023-03-25T08:46:15.775Z,83.78
2023-03-25T08:47:15.753Z,84.70
2023-03-25T08:48:15.719Z,87.37
2023-03-25T08:49:15.705Z,87.26
2023-03-25T08:50:15.686Z,83.98
2023-03-25T08:51:15.713Z,85.15
2023-03-25T08:52:15.655Z,84.12
2023-03-25T08:53:15.648Z,85.72
2023-03-25T08:54:15.679Z,85.93
2023-03-25T08:55:15.615Z,84.09
2023-03-25T08:56:15.606Z,85.22
2023-03-25T08:57:15.685Z,85.11
2023-03-25T08:58:15.681Z,83.92
2023-03-25T08:59:15.623Z,84.50
2023-03-25T09:00:15.663Z,86.75
2023-03-25T09:01:15.573Z,83.68
2023-03-25T09:02:15.624Z,83.58
2023-03-25T09:03:15.508Z,85.42
2023-03-25T09:04:15.498Z,86.75
2023-03-25T09:05:15.522Z,84.15
2023-03-25T09:06:15.475Z,84.01
2023-03-25T09:07:15.491Z,82.37
2023-03-25T09:08:15.448Z,84.38
2023-03-25T09:09:15.581Z,84.69
2023-03-25T09:10:15.772Z,83.01
2023-03-25T09:11:19.721Z,83.07
2023-03-25T09:12:16.417Z,80.93
2023-03-25T09:13:15.378Z,84.00
2023-03-25T09:14:15.358Z,80.42
2023-03-25T09:15:15.354Z,79.57
2023-03-25T09:16:15.370Z,79.39
2023-03-25T09:17:15.318Z,79.74
2023-03-25T09:18:15.306Z,82.29
2023-03-25T09:19:15.290Z,81.79
2023-03-25T09:20:15.281Z,82.91
2023-03-25T09:21:15.260Z,79.88
2023-03-25T09:22:15.259Z,83.46
2023-03-25T09:23:15.262Z,82.23
2023-03-25T09:24:15.226Z,81.51
2023-03-25T09:25:15.221Z,81.82
2023-03-25T09:26:15.199Z,82.23
2023-03-25T09:27:15.195Z,83.36
2023-03-25T09:28:15.178Z,81.41
2023-03-25T09:29:15.173Z,85.91
2023-03-25T09:30:15.139Z,83.87
2023-03-25T09:31:15.218Z,82.75
2023-03-25T09:32:15.126Z,83.22
2023-03-25T09:33:15.101Z,82.91
2023-03-25T09:34:16.152Z,85.36
2023-03-25T09:35:15.073Z,83.24
2023-03-25T09:36:15.071Z,82.75
2023-03-25T09:37:15.166Z,77.51
2023-03-25T09:38:15.034Z,80.27
2023-03-25T09:39:15.054Z,78.80
2023-03-25T09:40:15.000Z,75.48
2023-03-25T09:41:15.437Z,80.00
2023-03-25T09:42:14.974Z,77.31
2023-03-25T09:43:15.163Z,78.19
2023-03-25T09:44:14.945Z,76.73
2023-03-25T09:45:14.947Z,75.30
2023-03-25T09:46:14.951Z,77.44
2023-03-25T09:47:15.619Z,76.35
2023-03-25T09:48:14.894Z,76.87
2023-03-25T09:49:14.886Z,78.80
2023-03-25T09:50:14.866Z,78.12
2023-03-25T09:51:14.908Z,77.86
2023-03-25T09:52:14.904Z,78.00
2023-03-25T09:53:14.914Z,79.93
2023-03-25T09:54:14.890Z,80.48
2023-03-25T09:55:14.824Z,79.36
2023-03-25T09:56:14.802Z,81.30
2023-03-25T09:57:14.870Z,83.14
2023-03-25T09:58:14.813Z,80.11
2023-03-25T09:59:14.830Z,81.48
2023-03-25T10:00:14.796Z,83.83
2023-03-25T10:01:14.828Z,82.70
2023-03-25T10:02:14.853Z,85.50
2023-03-25T10:03:14.741Z,85.75
2023-03-25T10:04:14.685Z,86.16
2023-03-25T10:05:14.724Z,87.53
2023-03-25T10:06:14.670Z,87.43
2023-03-25T10:07:14.645Z,87.26
2023-03-25T10:08:14.633Z,89.37
2023-03-25T10:09:14.612Z,91.38
2023-03-25T10:10:14.614Z,90.05
2023-03-25T10:11:14.616Z,91.17
2023-03-25T10:12:14.574Z,92.15
2023-03-25T10:13:14.572Z,88.06
2023-03-25T10:14:14.565Z,91.07
2023-03-25T10:15:14.540Z,90.92
2023-03-25T10:16:14.530Z,91.33
2023-03-25T10:17:14.515Z,91.99
2023-03-25T10:18:14.487Z,92.15
2023-03-25T10:19:14.479Z,90.25
2023-03-25T10:20:14.469Z,93.98
2023-03-25T10:21:14.450Z,95.62
2023-03-25T10:22:14.433Z,94.07
2023-03-25T10:23:14.432Z,97.86
2023-03-25T10:24:14.410Z,98.72
2023-03-25T10:25:14.402Z,99.70
2023-03-25T10:26:14.395Z,99.03
2023-03-25T10:27:14.392Z,99.99
2023-03-25T10:28:14.358Z,99.99
2023-03-25T10:29:14.342Z,99.99
2023-03-25T10:30:14.430Z,99.99
2023-03-25T10:31:14.359Z,99.99
2023-03-25T10:32:14.373Z,98.51
2023-03-25T10:33:14.297Z,98.20
2023-03-25T10:34:14.273Z,94.77
2023-03-25T10:35:14.264Z,95.82
2023-03-25T10:36:14.243Z,96.27
2023-03-25T10:37:14.259Z,97.27
2023-03-25T10:38:14.720Z,96.22
2023-03-25T10:39:14.209Z,91.14
2023-03-25T10:40:14.193Z,90.19
2023-03-25T10:41:14.182Z,85.05
2023-03-25T10:42:14.160Z,83.74
2023-03-25T10:43:14.169Z,81.59
2023-03-25T10:44:14.135Z,88.26
2023-03-25T10:45:14.142Z,87.73
2023-03-25T10:46:14.145Z,90.64
2023-03-25T10:47:14.099Z,90.94
2023-03-25T10:48:14.078Z,92.58
2023-03-25T10:49:14.072Z,95.09
2023-03-25T10:50:14.054Z,91.94
2023-03-25T10:51:14.044Z,91.59
2023-03-25T10:52:14.034Z,93.02
2023-03-25T10:53:14.118Z,86.08
2023-03-25T10:54:13.998Z,85.92
2023-03-25T10:55:13.991Z,84.80
2023-03-25T10:56:13.978Z,86.06
2023-03-25T10:57:14.003Z,82.79
2023-03-25T10:58:13.940Z,86.71
2023-03-25T10:59:13.951Z,86.36
2023-03-25T11:00:13.915Z,88.67
2023-03-25T11:01:13.924Z,85.06
2023-03-25T11:02:13.981Z,81.02
2023-03-25T11:03:13.901Z,81.23
2023-03-25T11:04:13.901Z,80.30
2023-03-25T11:05:13.845Z,82.75
2023-03-25T11:06:13.836Z,82.35
2023-03-25T11:07:13.821Z,82.59
2023-03-25T11:08:24.169Z,80.65
2023-03-25T11:09:14.831Z,79.43
2023-03-25T11:10:13.784Z,82.12
2023-03-25T11:11:13.774Z,80.44
2023-03-25T11:12:13.753Z,78.64
2023-03-25T11:13:13.765Z,80.89
2023-03-25T11:14:13.761Z,83.65
2023-03-25T11:15:13.749Z,83.24
2023-03-25T11:16:13.759Z,82.63
2023-03-25T11:17:13.690Z,83.75
2023-03-25T11:18:13.697Z,84.12
2023-03-25T11:19:13.653Z,84.57
2023-03-25T11:20:13.645Z,86.10
2023-03-25T11:21:13.640Z,85.42
2023-03-25T11:22:13.617Z,83.48
2023-03-25T11:23:13.603Z,87.51
2023-03-25T11:24:13.596Z,88.88
2023-03-25T11:25:13.575Z,90.21
2023-03-25T11:26:13.564Z,90.41
2023-03-25T11:27:13.577Z,91.39
2023-03-25T11:28:13.534Z,90.49
2023-03-25T11:29:13.534Z,86.43
2023-03-25T11:30:13.504Z,88.36
2023-03-25T11:31:13.569Z,81.39
2023-03-25T11:32:13.480Z,78.08
2023-03-25T11:33:13.492Z,82.21
2023-03-25T11:34:13.494Z,80.49
2023-03-25T11:35:13.440Z,84.97
2023-03-25T11:36:13.422Z,82.05
2023-03-25T11:37:13.414Z,79.44
2023-03-25T11:38:13.404Z,79.85
2023-03-25T11:39:13.388Z,80.26
2023-03-25T11:40:13.376Z,80.93
2023-03-25T11:41:13.357Z,81.35
2023-03-25T11:42:13.349Z,79.31
2023-03-25T11:43:13.326Z,73.36
2023-03-25T11:44:13.317Z,75.65
2023-03-25T11:45:13.304Z,76.43
2023-03-25T11:46:13.311Z,73.16
2023-03-25T11:47:13.304Z,77.36
2023-03-25T11:48:13.350Z,76.98
2023-03-25T11:49:13.254Z,72.08
2023-03-25T11:50:13.236Z,76.89
2023-03-25T11:51:13.223Z,74.79
2023-03-25T11:52:13.228Z,77.57
2023-03-25T11:53:13.192Z,76.96
2023-03-25T11:54:13.181Z,78.69
2023-03-25T11:55:13.170Z,76.31
2023-03-25T11:56:13.156Z,77.42
2023-03-25T11:57:13.190Z,73.39
2023-03-25T11:58:13.125Z,68.19
2023-03-25T11:59:13.112Z,67.49
2023-03-25T12:00:13.097Z,64.42
2023-03-25T12:01:13.116Z,66.75
2023-03-25T12:02:13.073Z,64.94
2023-03-25T12:03:13.315Z,62.49
2023-03-25T12:04:13.061Z,63.61
2023-03-25T12:05:13.415Z,65.57
2023-03-25T12:06:13.057Z,68.61
2023-03-25T12:07:13.008Z,61.99
2023-03-25T12:08:12.996Z,60.85
2023-03-25T12:09:12.993Z,58.88
2023-03-25T12:10:12.964Z,62.75
2023-03-25T12:11:12.950Z,62.52
2023-03-25T12:12:12.937Z,57.39
2023-03-25T12:13:12.929Z,57.20
2023-03-25T12:14:12.932Z,58.71
2023-03-25T12:15:12.902Z,59.22
2023-03-25T12:16:12.920Z,60.32
2023-03-25T12:17:12.875Z,56.02
2023-03-25T12:18:12.854Z,59.55
2023-03-25T12:19:12.865Z,58.86
2023-03-25T12:20:12.836Z,56.41
2023-03-25T12:21:12.816Z,56.95
2023-03-25T12:22:12.803Z,55.41
2023-03-25T12:23:12.788Z,59.56
2023-03-25T12:24:12.780Z,62.54
2023-03-25T12:25:12.759Z,63.58
2023-03-25T12:26:12.760Z,67.71
2023-03-25T12:27:12.737Z,72.01
2023-03-25T12:28:12.734Z,74.28
2023-03-25T12:29:12.714Z,71.50
2023-03-25T12:30:12.710Z,69.77
2023-03-25T12:31:12.908Z,72.69
2023-03-25T12:32:12.706Z,68.70
2023-03-25T12:33:12.675Z,67.94
2023-03-25T12:34:12.720Z,68.05
2023-03-25T12:35:12.646Z,70.45
2023-03-25T12:36:12.757Z,70.79
2023-03-25T12:37:12.602Z,70.68
2023-03-25T12:38:12.606Z,70.01
2023-03-25T12:39:12.588Z,73.19
2023-03-25T12:40:12.575Z,69.70
2023-03-25T12:41:12.546Z,66.53
2023-03-25T12:42:12.661Z,64.75
2023-03-25T12:43:12.524Z,64.21
2023-03-25T12:44:12.510Z,64.07
2023-03-25T12:45:12.511Z,59.67
2023-03-25T12:46:12.527Z,61.63
2023-03-25T12:47:12.461Z,59.94
2023-03-25T12:48:12.452Z,61.43
2023-03-25T12:49:12.455Z,59.74
2023-03-25T12:50:12.431Z,63.61
2023-03-25T12:51:12.439Z,64.04
2023-03-25T12:52:12.401Z,65.37
2023-03-25T12:53:12.388Z,65.81
2023-03-25T12:54:12.579Z,61.51
2023-03-25T12:55:12.367Z,60.27